sensor_id;sensor_type;location;lat;lon;timestamp;pressure;altitude;pressure_sealevel;temperature;humidity
48622;BME280;34421;48.944;9.460;2022-09-09T00:03:53;98157.03;;;16.11;69.57
48622;BME280;34421;48.944;9.460;2022-09-09T00:09:04;98148.63;;;16.02;68.83
48622;BME280;34421;48.944;9.460;2022-09-09T00:14:35;98156.44;;;16.04;69.40
48622;BME280;34421;48.944;9.460;2022-09-09T00:17:03;98157.56;;;16.08;69.73
48622;BME280;34421;48.944;9.460;2022-09-09T00:19:36;98154.06;;;16.07;69.35
48622;BME280;34421;48.944;9.460;2022-09-09T00:22:08;98155.38;;;16.05;68.94
48622;BME280;34421;48.944;9.460;2022-09-09T00:24:43;98152.19;;;16.08;69.12
48622;BME280;34421;48.944;9.460;2022-09-09T00:27:21;98147.09;;;16.06;69.41
48622;BME280;34421;48.944;9.460;2022-09-09T00:29:53;98148.63;;;16.02;68.80
48622;BME280;34421;48.944;9.460;2022-09-09T00:32:19;98143.25;;;16.02;69.12
48622;BME280;34421;48.944;9.460;2022-09-09T00:34:52;98147.81;;;16.02;69.75
48622;BME280;34421;48.944;9.460;2022-09-09T00:37:19;98138.41;;;15.99;69.09
48622;BME280;34421;48.944;9.460;2022-09-09T00:39:45;98138.91;;;15.96;69.53
48622;BME280;34421;48.944;9.460;2022-09-09T00:42:14;98142.66;;;15.95;69.37
48622;BME280;34421;48.944;9.460;2022-09-09T00:44:44;98146.16;;;15.95;69.45
48622;BME280;34421;48.944;9.460;2022-09-09T00:47:17;98143.41;;;15.90;68.78
48622;BME280;34421;48.944;9.460;2022-09-09T00:57:30;98145.84;;;15.92;69.05
48622;BME280;34421;48.944;9.460;2022-09-09T01:07:58;98150.75;;;16.00;68.79
48622;BME280;34421;48.944;9.460;2022-09-09T01:10:36;98143.81;;;16.04;68.89
48622;BME280;34421;48.944;9.460;2022-09-09T01:13:04;98150.28;;;16.03;69.62
48622;BME280;34421;48.944;9.460;2022-09-09T01:15:36;98151.88;;;16.04;69.08
48622;BME280;34421;48.944;9.460;2022-09-09T01:18:04;98156.75;;;16.07;68.77
48622;BME280;34421;48.944;9.460;2022-09-09T01:20:53;98155.13;;;16.06;69.73
48622;BME280;34421;48.944;9.460;2022-09-09T01:26:11;98160.00;;;16.09;69.74
48622;BME280;34421;48.944;9.460;2022-09-09T01:28:39;98152.47;;;16.11;69.19
48622;BME280;34421;48.944;9.460;2022-09-09T01:31:05;98157.34;;;16.14;69.42
48622;BME280;34421;48.944;9.460;2022-09-09T01:33:31;98156.03;;;16.17;69.33
48622;BME280;34421;48.944;9.460;2022-09-09T01:35:58;98157.63;;;16.18;69.84
48622;BME280;34421;48.944;9.460;2022-09-09T01:38:27;98153.09;;;16.18;69.28
48622;BME280;34421;48.944;9.460;2022-09-09T01:40:53;98146.41;;;16.21;69.30
48622;BME280;34421;48.944;9.460;2022-09-09T01:43:22;98151.53;;;16.23;69.87
48622;BME280;34421;48.944;9.460;2022-09-09T01:45:49;98156.03;;;16.17;69.83
48622;BME280;34421;48.944;9.460;2022-09-09T01:48:16;98157.91;;;16.16;70.07
48622;BME280;34421;48.944;9.460;2022-09-09T01:50:42;98156.84;;;16.17;70.26
48622;BME280;34421;48.944;9.460;2022-09-09T01:53:07;98159.53;;;16.17;69.78
48622;BME280;34421;48.944;9.460;2022-09-09T01:55:36;98165.66;;;16.13;69.41
48622;BME280;34421;48.944;9.460;2022-09-09T02:00:28;98161.66;;;16.15;70.35
48622;BME280;34421;48.944;9.460;2022-09-09T02:08:11;98167.84;;;16.16;70.43
48622;BME280;34421;48.944;9.460;2022-09-09T02:10:45;98165.66;;;16.13;70.55
48622;BME280;34421;48.944;9.460;2022-09-09T02:13:16;98161.91;;;16.14;70.17
48622;BME280;34421;48.944;9.460;2022-09-09T02:15:44;98155.22;;;16.16;70.57
48622;BME280;34421;48.944;9.460;2022-09-09T02:18:12;98153.63;;;16.15;69.94
48622;BME280;34421;48.944;9.460;2022-09-09T02:20:39;98154.41;;;16.16;69.99
48622;BME280;34421;48.944;9.460;2022-09-09T02:23:05;98148.25;;;16.15;70.56
48622;BME280;34421;48.944;9.460;2022-09-09T02:25:30;98144.41;;;16.11;70.24
48622;BME280;34421;48.944;9.460;2022-09-09T02:27:58;98143.25;;;16.02;70.33
48622;BME280;34421;48.944;9.460;2022-09-09T02:30:23;98129.78;;;15.97;70.35
48622;BME280;34421;48.944;9.460;2022-09-09T02:32:50;98137.03;;;15.97;70.84
48622;BME280;34421;48.944;9.460;2022-09-09T02:35:19;98135.91;;;15.92;70.49
48622;BME280;34421;48.944;9.460;2022-09-09T02:37:46;98137.50;;;15.88;71.23
48622;BME280;34421;48.944;9.460;2022-09-09T02:40:11;98150.09;;;15.88;70.15
48622;BME280;34421;48.944;9.460;2022-09-09T02:42:39;98150.28;;;15.81;70.30
48622;BME280;34421;48.944;9.460;2022-09-09T02:45:05;98151.31;;;15.75;70.41
48622;BME280;34421;48.944;9.460;2022-09-09T02:47:34;98153.69;;;15.71;71.20
48622;BME280;34421;48.944;9.460;2022-09-09T02:50:02;98148.81;;;15.68;70.61
48622;BME280;34421;48.944;9.460;2022-09-09T02:54:59;98151.09;;;15.60;71.19
48622;BME280;34421;48.944;9.460;2022-09-09T02:57:28;98158.28;;;15.54;70.80
48622;BME280;34421;48.944;9.460;2022-09-09T02:59:56;98156.59;;;15.48;70.17
48622;BME280;34421;48.944;9.460;2022-09-09T03:02:21;98168.63;;;15.45;70.85
48622;BME280;34421;48.944;9.460;2022-09-09T03:04:47;98177.66;;;15.39;70.31
48622;BME280;34421;48.944;9.460;2022-09-09T03:07:16;98168.84;;;15.22;70.85
48622;BME280;34421;48.944;9.460;2022-09-09T03:09:42;98164.88;;;15.24;70.71
48622;BME280;34421;48.944;9.460;2022-09-09T03:12:07;98156.75;;;15.19;70.64
48622;BME280;34421;48.944;9.460;2022-09-09T03:14:32;98158.38;;;15.20;70.19
48622;BME280;34421;48.944;9.460;2022-09-09T03:16:57;98157.91;;;15.07;70.20
48622;BME280;34421;48.944;9.460;2022-09-09T03:19:25;98148.00;;;15.07;70.94
48622;BME280;34421;48.944;9.460;2022-09-09T03:21:50;98148.00;;;15.07;71.00
48622;BME280;34421;48.944;9.460;2022-09-09T03:24:16;98141.03;;;15.06;70.93
48622;BME280;34421;48.944;9.460;2022-09-09T03:26:41;98146.13;;;15.08;70.78
48622;BME280;34421;48.944;9.460;2022-09-09T03:29:09;98141.84;;;15.07;70.58
48622;BME280;34421;48.944;9.460;2022-09-09T03:31:34;98140.38;;;14.99;70.54
48622;BME280;34421;48.944;9.460;2022-09-09T03:34:01;98142.00;;;15.00;70.77
48622;BME280;34421;48.944;9.460;2022-09-09T03:36:27;98142.25;;;14.98;70.21
48622;BME280;34421;48.944;9.460;2022-09-09T03:38:53;98138.44;;;14.94;70.74
48622;BME280;34421;48.944;9.460;2022-09-09T03:41:19;98137.06;;;14.92;70.19
48622;BME280;34421;48.944;9.460;2022-09-09T03:43:44;98136.50;;;14.90;70.31
48622;BME280;34421;48.944;9.460;2022-09-09T03:46:10;98147.72;;;14.87;70.33
48622;BME280;34421;48.944;9.460;2022-09-09T03:48:35;98149.84;;;14.85;70.56
48622;BME280;34421;48.944;9.460;2022-09-09T03:51:00;98153.06;;;14.87;70.33
48622;BME280;34421;48.944;9.460;2022-09-09T03:53:26;98153.56;;;14.84;70.80
48622;BME280;34421;48.944;9.460;2022-09-09T03:55:52;98148.47;;;14.82;70.81
48622;BME280;34421;48.944;9.460;2022-09-09T03:58:24;98147.16;;;14.85;70.68
48622;BME280;34421;48.944;9.460;2022-09-09T04:03:19;98157.94;;;14.90;70.98
48622;BME280;34421;48.944;9.460;2022-09-09T04:05:45;98163.06;;;14.91;70.95
48622;BME280;34421;48.944;9.460;2022-09-09T04:08:13;98148.78;;;14.86;71.25
48622;BME280;34421;48.944;9.460;2022-09-09T04:10:38;98146.41;;;14.89;71.40
48622;BME280;34421;48.944;9.460;2022-09-09T04:13:04;98145.09;;;14.92;71.28
48622;BME280;34421;48.944;9.460;2022-09-09T04:15:29;98158.50;;;14.92;71.19
48622;BME280;34421;48.944;9.460;2022-09-09T04:17:55;98155.53;;;14.88;71.14
48622;BME280;34421;48.944;9.460;2022-09-09T04:20:20;98158.69;;;14.85;71.31
48622;BME280;34421;48.944;9.460;2022-09-09T04:22:47;98163.72;;;14.81;71.48
48622;BME280;34421;48.944;9.460;2022-09-09T04:25:12;98162.34;;;14.79;71.97
48622;BME280;34421;48.944;9.460;2022-09-09T04:27:37;98152.75;;;14.83;71.91
48622;BME280;34421;48.944;9.460;2022-09-09T04:30:02;98153.31;;;14.85;71.69
48622;BME280;34421;48.944;9.460;2022-09-09T04:32:27;98153.06;;;14.87;71.19
48622;BME280;34421;48.944;9.460;2022-09-09T04:34:53;98155.53;;;14.88;71.70
48622;BME280;34421;48.944;9.460;2022-09-09T04:37:18;98153.06;;;14.87;71.57
48622;BME280;34421;48.944;9.460;2022-09-09T04:39:43;98158.91;;;14.84;71.67
48622;BME280;34421;48.944;9.460;2022-09-09T04:42:10;98164.22;;;14.78;71.39
48622;BME280;34421;48.944;9.460;2022-09-09T04:44:35;98159.91;;;14.77;71.75
48622;BME280;34421;48.944;9.460;2022-09-09T04:47:01;98168.03;;;14.82;71.85
48622;BME280;34421;48.944;9.460;2022-09-09T04:49:26;98160.00;;;14.82;71.85
48622;BME280;34421;48.944;9.460;2022-09-09T04:51:51;98168.13;;;14.88;71.26
48622;BME280;34421;48.944;9.460;2022-09-09T04:54:16;98169.81;;;14.94;71.66
48622;BME280;34421;48.944;9.460;2022-09-09T04:56:42;98175.50;;;14.97;70.97
48622;BME280;34421;48.944;9.460;2022-09-09T04:59:08;98168.25;;;14.98;71.99
48622;BME280;34421;48.944;9.460;2022-09-09T05:01:34;98170.44;;;15.01;71.33
48622;BME280;34421;48.944;9.460;2022-09-09T05:03:59;98167.53;;;15.02;71.63
48622;BME280;34421;48.944;9.460;2022-09-09T05:06:24;98181.25;;;15.06;71.55
48622;BME280;34421;48.944;9.460;2022-09-09T05:08:50;98192.53;;;15.08;71.98
48622;BME280;34421;48.944;9.460;2022-09-09T05:11:25;98187.09;;;15.03;71.21
48622;BME280;34421;48.944;9.460;2022-09-09T05:13:51;98193.03;;;15.05;72.38
48622;BME280;34421;48.944;9.460;2022-09-09T05:16:16;98199.03;;;15.12;71.81
48622;BME280;34421;48.944;9.460;2022-09-09T05:18:42;98198.75;;;15.14;72.14
48622;BME280;34421;48.944;9.460;2022-09-09T05:21:08;98201.28;;;15.20;71.58
48622;BME280;34421;48.944;9.460;2022-09-09T05:23:34;98201.84;;;15.22;72.30
48622;BME280;34421;48.944;9.460;2022-09-09T05:25:59;98200.81;;;15.23;71.82
48622;BME280;34421;48.944;9.460;2022-09-09T05:28:26;98196.81;;;15.26;71.65
48622;BME280;34421;48.944;9.460;2022-09-09T05:31:02;98196.06;;;15.31;72.05
48622;BME280;34421;48.944;9.460;2022-09-09T05:33:31;98199.06;;;15.34;71.70
48622;BME280;34421;48.944;9.460;2022-09-09T05:36:10;98205.31;;;15.40;72.25
48622;BME280;34421;48.944;9.460;2022-09-09T05:38:37;98206.75;;;15.47;71.52
48622;BME280;34421;48.944;9.460;2022-09-09T05:41:03;98203.00;;;15.48;71.69
48622;BME280;34421;48.944;9.460;2022-09-09T05:43:28;98204.63;;;15.49;72.52
48622;BME280;34421;48.944;9.460;2022-09-09T05:48:29;98214.38;;;15.56;72.03
48622;BME280;34421;48.944;9.460;2022-09-09T05:50:55;98197.53;;;15.60;71.90
48622;BME280;34421;48.944;9.460;2022-09-09T05:53:20;98210.44;;;15.63;72.07
48622;BME280;34421;48.944;9.460;2022-09-09T05:55:46;98209.88;;;15.61;71.73
48622;BME280;34421;48.944;9.460;2022-09-09T05:58:12;98209.47;;;15.69;72.38
48622;BME280;34421;48.944;9.460;2022-09-09T06:00:37;98217.66;;;15.80;71.60
48622;BME280;34421;48.944;9.460;2022-09-09T06:03:03;98216.66;;;15.86;72.07
48622;BME280;34421;48.944;9.460;2022-09-09T06:05:28;98214.16;;;15.79;72.19
48622;BME280;34421;48.944;9.460;2022-09-09T06:07:54;98210.97;;;15.82;71.65
48622;BME280;34421;48.944;9.460;2022-09-09T06:10:20;98213.09;;;15.80;71.40
48622;BME280;34421;48.944;9.460;2022-09-09T06:12:45;98208.59;;;15.86;71.79
48622;BME280;34421;48.944;9.460;2022-09-09T06:15:10;98214.09;;;15.96;71.34
48622;BME280;34421;48.944;9.460;2022-09-09T06:17:35;98204.44;;;16.00;71.93
48622;BME280;34421;48.944;9.460;2022-09-09T06:20:01;98197.59;;;16.09;71.56
48622;BME280;34421;48.944;9.460;2022-09-09T06:22:26;98201.44;;;16.18;71.25
48622;BME280;34421;48.944;9.460;2022-09-09T06:24:51;98205.53;;;16.26;71.46
48622;BME280;34421;48.944;9.460;2022-09-09T06:27:18;98200.53;;;16.35;71.60
48622;BME280;34421;48.944;9.460;2022-09-09T06:29:43;98204.38;;;16.44;71.37
48622;BME280;34421;48.944;9.460;2022-09-09T06:32:09;98205.22;;;16.50;71.73
48622;BME280;34421;48.944;9.460;2022-09-09T06:34:34;98202.31;;;16.56;70.91
48622;BME280;34421;48.944;9.460;2022-09-09T06:37:00;98203.19;;;16.62;71.80
48622;BME280;34421;48.944;9.460;2022-09-09T06:39:25;98201.41;;;16.73;71.59
48622;BME280;34421;48.944;9.460;2022-09-09T06:41:51;98195.25;;;16.77;71.61
48622;BME280;34421;48.944;9.460;2022-09-09T06:44:18;98204.19;;;16.83;71.63
48622;BME280;34421;48.944;9.460;2022-09-09T06:46:43;98199.72;;;16.94;70.84
48622;BME280;34421;48.944;9.460;2022-09-09T06:49:09;98211.88;;;17.06;71.37
48622;BME280;34421;48.944;9.460;2022-09-09T06:51:35;98206.50;;;17.06;71.39
48622;BME280;34421;48.944;9.460;2022-09-09T06:54:01;98204.91;;;17.05;71.63
48622;BME280;34421;48.944;9.460;2022-09-09T06:58:56;98212.59;;;17.29;71.23
48622;BME280;34421;48.944;9.460;2022-09-09T07:01:22;98210.22;;;17.43;70.62
48622;BME280;34421;48.944;9.460;2022-09-09T07:03:52;98219.72;;;17.56;71.28
48622;BME280;34421;48.944;9.460;2022-09-09T07:06:19;98215.47;;;17.65;70.48
48622;BME280;34421;48.944;9.460;2022-09-09T07:08:51;98220.06;;;17.74;70.40
48622;BME280;34421;48.944;9.460;2022-09-09T07:11:16;98218.53;;;17.84;70.53
48622;BME280;34421;48.944;9.460;2022-09-09T07:13:42;98216.13;;;17.92;70.01
48622;BME280;34421;48.944;9.460;2022-09-09T07:16:11;98215.59;;;17.95;69.83
48622;BME280;34421;48.944;9.460;2022-09-09T07:18:37;98216.97;;;17.98;69.71
48622;BME280;34421;48.944;9.460;2022-09-09T07:21:03;98225.88;;;18.04;70.12
48622;BME280;34421;48.944;9.460;2022-09-09T07:23:29;98216.47;;;18.11;69.80
48622;BME280;34421;48.944;9.460;2022-09-09T07:25:55;98218.38;;;18.26;69.38
48622;BME280;34421;48.944;9.460;2022-09-09T07:28:20;98209.25;;;18.37;69.32
48622;BME280;34421;48.944;9.460;2022-09-09T07:33:19;98215.22;;;18.65;68.74
48622;BME280;34421;48.944;9.460;2022-09-09T07:35:45;98213.34;;;18.76;68.05
48622;BME280;34421;48.944;9.460;2022-09-09T07:38:10;98218.47;;;18.87;67.67
48622;BME280;34421;48.944;9.460;2022-09-09T07:40:36;98217.94;;;19.01;67.52
48622;BME280;34421;48.944;9.460;2022-09-09T07:43:01;98223.88;;;19.08;67.10
48622;BME280;34421;48.944;9.460;2022-09-09T07:45:26;98218.47;;;19.13;66.45
48622;BME280;34421;48.944;9.460;2022-09-09T07:47:53;98212.53;;;19.16;66.40
48622;BME280;34421;48.944;9.460;2022-09-09T07:50:18;98226.53;;;19.23;66.34
48622;BME280;34421;48.944;9.460;2022-09-09T07:52:44;98227.59;;;19.27;66.02
48622;BME280;34421;48.944;9.460;2022-09-09T07:55:09;98222.19;;;19.32;65.23
48622;BME280;34421;48.944;9.460;2022-09-09T07:57:34;98217.59;;;19.33;65.39
48622;BME280;34421;48.944;9.460;2022-09-09T07:59:59;98223.28;;;19.37;64.61
48622;BME280;34421;48.944;9.460;2022-09-09T08:02:24;98221.09;;;19.39;64.58
48622;BME280;34421;48.944;9.460;2022-09-09T08:04:54;98218.16;;;19.40;64.44
48622;BME280;34421;48.944;9.460;2022-09-09T08:07:19;98214.59;;;19.50;64.34
48622;BME280;34421;48.944;9.460;2022-09-09T08:09:46;98217.31;;;19.55;64.22
48622;BME280;34421;48.944;9.460;2022-09-09T08:12:11;98230.75;;;19.60;63.77
48622;BME280;34421;48.944;9.460;2022-09-09T08:14:38;98234.00;;;19.62;63.61
48622;BME280;34421;48.944;9.460;2022-09-09T08:17:04;98235.09;;;19.61;62.47
48622;BME280;34421;48.944;9.460;2022-09-09T08:19:29;98238.34;;;19.58;62.21
48622;BME280;34421;48.944;9.460;2022-09-09T08:21:55;98240.25;;;19.52;61.66
48622;BME280;34421;48.944;9.460;2022-09-09T08:24:20;98241.59;;;19.55;61.07
48622;BME280;34421;48.944;9.460;2022-09-09T08:26:46;98231.31;;;19.62;61.19
48622;BME280;34421;48.944;9.460;2022-09-09T08:29:13;98230.78;;;19.70;60.45
48622;BME280;34421;48.944;9.460;2022-09-09T08:31:42;98223.72;;;19.79;60.25
48622;BME280;34421;48.944;9.460;2022-09-09T08:34:08;98235.03;;;19.87;60.03
48622;BME280;34421;48.944;9.460;2022-09-09T08:36:36;98247.47;;;19.88;58.77
48622;BME280;34421;48.944;9.460;2022-09-09T08:39:02;98244.78;;;19.88;59.30
48622;BME280;34421;48.944;9.460;2022-09-09T08:41:43;98240.41;;;19.92;58.98
48622;BME280;34421;48.944;9.460;2022-09-09T08:44:18;98238.25;;;19.94;58.82
48622;BME280;34421;48.944;9.460;2022-09-09T08:52:36;98255.28;;;19.94;57.98
48622;BME280;34421;48.944;9.460;2022-09-09T08:55:13;98259.31;;;19.97;57.70
48622;BME280;34421;48.944;9.460;2022-09-09T08:57:41;98258.47;;;20.01;57.60
48622;BME280;34421;48.944;9.460;2022-09-09T09:00:08;98251.19;;;20.02;57.41
48622;BME280;34421;48.944;9.460;2022-09-09T09:02:41;98247.41;;;20.03;57.24
48622;BME280;34421;48.944;9.460;2022-09-09T09:05:12;98244.41;;;20.04;57.23
48622;BME280;34421;48.944;9.460;2022-09-09T09:10:20;98232.44;;;20.21;56.98
48622;BME280;34421;48.944;9.460;2022-09-09T09:12:49;98235.63;;;20.28;55.99
48622;BME280;34421;48.944;9.460;2022-09-09T09:15:23;98232.09;;;20.33;55.71
48622;BME280;34421;48.944;9.460;2022-09-09T09:17:48;98226.63;;;20.43;55.70
48622;BME280;34421;48.944;9.460;2022-09-09T09:20:15;98227.13;;;20.50;55.54
48622;BME280;34421;48.944;9.460;2022-09-09T09:30:23;98214.56;;;21.04;55.27
48622;BME280;34421;48.944;9.460;2022-09-09T09:32:58;98215.56;;;21.13;54.49
48622;BME280;34421;48.944;9.460;2022-09-09T09:35:26;98214.59;;;21.28;54.01
48622;BME280;34421;48.944;9.460;2022-09-09T09:37:51;98199.91;;;21.39;53.01
48622;BME280;34421;48.944;9.460;2022-09-09T09:40:18;98203.47;;;21.58;52.49
48622;BME280;34421;48.944;9.460;2022-09-09T09:42:53;98195.69;;;21.76;51.50
48622;BME280;34421;48.944;9.460;2022-09-09T09:47:57;98202.13;;;21.80;52.50
48622;BME280;34421;48.944;9.460;2022-09-09T09:50:22;98202.25;;;21.70;51.94
48622;BME280;34421;48.944;9.460;2022-09-09T09:52:56;98203.94;;;21.66;52.85
48622;BME280;34421;48.944;9.460;2022-09-09T09:55:22;98206.41;;;21.62;52.41
48622;BME280;34421;48.944;9.460;2022-09-09T09:57:49;98192.63;;;21.58;53.00
48622;BME280;34421;48.944;9.460;2022-09-09T10:00:18;98192.28;;;21.65;52.39
48622;BME280;34421;48.944;9.460;2022-09-09T10:02:44;98191.81;;;21.82;52.15
48622;BME280;34421;48.944;9.460;2022-09-09T10:07:38;98189.75;;;21.74;51.54
48622;BME280;34421;48.944;9.460;2022-09-09T10:10:04;98184.72;;;21.62;52.02
48622;BME280;34421;48.944;9.460;2022-09-09T10:17:58;98178.47;;;21.67;52.65
48622;BME280;34421;48.944;9.460;2022-09-09T10:20:43;98183.25;;;21.75;51.64
48622;BME280;34421;48.944;9.460;2022-09-09T10:23:15;98197.81;;;21.79;50.18
48622;BME280;34421;48.944;9.460;2022-09-09T10:38:42;98192.97;;;22.19;45.85
48622;BME280;34421;48.944;9.460;2022-09-09T10:49:23;98197.50;;;22.42;42.54
48622;BME280;34421;48.944;9.460;2022-09-09T10:54:22;98188.38;;;22.71;41.89
48622;BME280;34421;48.944;9.460;2022-09-09T10:56:58;98202.44;;;22.92;41.52
48622;BME280;34421;48.944;9.460;2022-09-09T10:59:29;98207.94;;;23.06;41.04
48622;BME280;34421;48.944;9.460;2022-09-09T11:04:41;98200.41;;;23.16;41.42
48622;BME280;34421;48.944;9.460;2022-09-09T11:07:08;98193.53;;;23.05;41.18
48622;BME280;34421;48.944;9.460;2022-09-09T11:09:37;98191.28;;;22.93;41.57
48622;BME280;34421;48.944;9.460;2022-09-09T11:12:04;98200.09;;;22.85;41.83
48622;BME280;34421;48.944;9.460;2022-09-09T11:14:37;98193.16;;;22.79;42.91
48622;BME280;34421;48.944;9.460;2022-09-09T11:17:21;98191.25;;;22.80;42.86
48622;BME280;34421;48.944;9.460;2022-09-09T11:19:49;98192.69;;;22.58;44.10
48622;BME280;34421;48.944;9.460;2022-09-09T11:22:19;98191.59;;;22.40;44.47
48622;BME280;34421;48.944;9.460;2022-09-09T11:24:53;98192.38;;;22.22;44.62
48622;BME280;34421;48.944;9.460;2022-09-09T11:27:24;98194.19;;;22.07;45.71
48622;BME280;34421;48.944;9.460;2022-09-09T11:35:03;98171.06;;;21.72;47.90
48622;BME280;34421;48.944;9.460;2022-09-09T11:37:53;98191.59;;;21.54;48.27
48622;BME280;34421;48.944;9.460;2022-09-09T11:40:23;98234.41;;;21.23;50.23
48622;BME280;34421;48.944;9.460;2022-09-09T11:42:59;98233.91;;;20.47;55.48
48622;BME280;34421;48.944;9.460;2022-09-09T11:45:26;98242.63;;;19.74;60.15
48622;BME280;34421;48.944;9.460;2022-09-09T11:47:57;98255.94;;;18.63;67.75
48622;BME280;34421;48.944;9.460;2022-09-09T11:52:48;98269.59;;;17.26;74.74
48622;BME280;34421;48.944;9.460;2022-09-09T11:55:27;98261.19;;;17.17;77.83
48622;BME280;34421;48.944;9.460;2022-09-09T11:57:58;98275.84;;;17.37;83.10
48622;BME280;34421;48.944;9.460;2022-09-09T12:00:31;98267.44;;;17.28;82.57
48622;BME280;34421;48.944;9.460;2022-09-09T12:02:58;98273.91;;;17.27;82.29
48622;BME280;34421;48.944;9.460;2022-09-09T12:05:23;98273.94;;;17.32;82.49
48622;BME280;34421;48.944;9.460;2022-09-09T12:07:59;98257.91;;;17.47;84.00
48622;BME280;34421;48.944;9.460;2022-09-09T12:10:26;98255.53;;;17.56;84.87
48622;BME280;34421;48.944;9.460;2022-09-09T12:12:53;98245.13;;;17.75;85.86
48622;BME280;34421;48.944;9.460;2022-09-09T12:15:23;98248.25;;;18.14;87.20
48622;BME280;34421;48.944;9.460;2022-09-09T12:17:51;98241.06;;;18.56;87.40
48622;BME280;34421;48.944;9.460;2022-09-09T12:27:57;98203.59;;;19.26;87.28
48622;BME280;34421;48.944;9.460;2022-09-09T12:30:41;98216.41;;;19.80;86.38
48622;BME280;34421;48.944;9.460;2022-09-09T12:33:10;98203.88;;;20.49;86.75
48622;BME280;34421;48.944;9.460;2022-09-09T12:35:37;98201.81;;;21.09;85.54
48622;BME280;34421;48.944;9.460;2022-09-09T12:38:03;98201.59;;;21.30;84.17
48622;BME280;34421;48.944;9.460;2022-09-09T12:40:30;98198.28;;;21.38;83.00
48622;BME280;34421;48.944;9.460;2022-09-09T12:42:57;98203.25;;;21.55;82.58
48622;BME280;34421;48.944;9.460;2022-09-09T12:45:24;98199.41;;;21.80;81.96
48622;BME280;34421;48.944;9.460;2022-09-09T12:47:55;98198.94;;;22.16;81.10
48622;BME280;34421;48.944;9.460;2022-09-09T12:50:25;98198.09;;;22.39;79.04
48622;BME280;34421;48.944;9.460;2022-09-09T12:52:51;98189.81;;;22.49;77.94
48622;BME280;34421;48.944;9.460;2022-09-09T12:55:21;98184.06;;;22.70;78.31
48622;BME280;34421;48.944;9.460;2022-09-09T12:57:50;98191.44;;;22.50;77.39
48622;BME280;34421;48.944;9.460;2022-09-09T13:00:17;98188.47;;;22.66;77.82
48622;BME280;34421;48.944;9.460;2022-09-09T13:02:47;98186.47;;;22.71;76.82
48622;BME280;34421;48.944;9.460;2022-09-09T13:05:17;98195.59;;;22.62;75.42
48622;BME280;34421;48.944;9.460;2022-09-09T13:07:43;98186.88;;;22.97;73.75
48622;BME280;34421;48.944;9.460;2022-09-09T13:10:12;98188.56;;;22.93;72.33
48622;BME280;34421;48.944;9.460;2022-09-09T13:12:38;98181.59;;;22.87;71.29
48622;BME280;34421;48.944;9.460;2022-09-09T13:15:03;98187.25;;;22.58;67.77
48622;BME280;34421;48.944;9.460;2022-09-09T13:17:28;98186.00;;;22.50;70.67
48622;BME280;34421;48.944;9.460;2022-09-09T13:19:54;98172.88;;;22.39;70.08
48622;BME280;34421;48.944;9.460;2022-09-09T13:25:03;98166.97;;;22.69;68.56
48622;BME280;34421;48.944;9.460;2022-09-09T13:27:30;98167.81;;;23.03;65.26
48622;BME280;34421;48.944;9.460;2022-09-09T13:29:56;98166.69;;;23.04;65.19
48622;BME280;34421;48.944;9.460;2022-09-09T13:32:21;98170.88;;;22.96;59.25
48622;BME280;34421;48.944;9.460;2022-09-09T13:35:00;98168.66;;;22.65;59.80
48622;BME280;34421;48.944;9.460;2022-09-09T13:37:36;98167.78;;;22.37;57.32
48622;BME280;34421;48.944;9.460;2022-09-09T13:40:02;98172.25;;;22.28;58.37
48622;BME280;34421;48.944;9.460;2022-09-09T13:42:29;98162.66;;;22.17;57.98
48622;BME280;34421;48.944;9.460;2022-09-09T13:44:56;98167.31;;;22.11;57.31
48622;BME280;34421;48.944;9.460;2022-09-09T13:47:27;98154.28;;;22.13;57.74
48622;BME280;34421;48.944;9.460;2022-09-09T13:49:53;98158.28;;;22.16;57.37
48622;BME280;34421;48.944;9.460;2022-09-09T13:52:18;98156.31;;;22.21;57.30
48622;BME280;34421;48.944;9.460;2022-09-09T13:54:48;98150.47;;;22.33;57.87
48622;BME280;34421;48.944;9.460;2022-09-09T13:57:18;98140.88;;;22.55;57.55
48622;BME280;34421;48.944;9.460;2022-09-09T13:59:44;98139.34;;;23.14;55.27
48622;BME280;34421;48.944;9.460;2022-09-09T14:02:09;98135.25;;;23.44;53.09
48622;BME280;34421;48.944;9.460;2022-09-09T14:04:34;98135.31;;;23.25;50.10
48622;BME280;34421;48.944;9.460;2022-09-09T14:07:00;98138.66;;;23.22;50.83
48622;BME280;34421;48.944;9.460;2022-09-09T14:09:25;98135.75;;;23.32;50.41
48622;BME280;34421;48.944;9.460;2022-09-09T14:11:50;98134.31;;;23.49;49.12
48622;BME280;34421;48.944;9.460;2022-09-09T14:14:15;98137.75;;;23.68;47.48
48622;BME280;34421;48.944;9.460;2022-09-09T14:16:40;98128.19;;;23.71;47.03
48622;BME280;34421;48.944;9.460;2022-09-09T14:19:07;98142.19;;;23.78;47.25
48622;BME280;34421;48.944;9.460;2022-09-09T14:21:32;98136.13;;;23.67;46.72
48622;BME280;34421;48.944;9.460;2022-09-09T14:23:57;98135.94;;;23.50;47.02
48622;BME280;34421;48.944;9.460;2022-09-09T14:26:23;98129.41;;;23.37;47.18
48622;BME280;34421;48.944;9.460;2022-09-09T14:28:49;98131.81;;;23.38;47.86
48622;BME280;34421;48.944;9.460;2022-09-09T14:31:15;98134.72;;;23.83;48.02
48622;BME280;34421;48.944;9.460;2022-09-09T14:33:42;98134.47;;;24.66;45.77
48622;BME280;34421;48.944;9.460;2022-09-09T14:36:07;98139.28;;;25.00;43.99
48622;BME280;34421;48.944;9.460;2022-09-09T14:38:34;98130.72;;;24.85;43.66
48622;BME280;34421;48.944;9.460;2022-09-09T14:41:04;98130.59;;;24.90;42.61
48622;BME280;34421;48.944;9.460;2022-09-09T14:43:29;98127.47;;;25.45;41.99
48622;BME280;34421;48.944;9.460;2022-09-09T14:45:57;98133.22;;;25.92;41.33
48622;BME280;34421;48.944;9.460;2022-09-09T14:48:22;98125.94;;;25.79;40.87
48622;BME280;34421;48.944;9.460;2022-09-09T14:50:47;98131.59;;;26.08;40.03
48622;BME280;34421;48.944;9.460;2022-09-09T14:53:14;98124.84;;;26.75;39.64
48622;BME280;34421;48.944;9.460;2022-09-09T14:55:41;98121.38;;;27.04;39.06
48622;BME280;34421;48.944;9.460;2022-09-09T14:58:07;98126.00;;;26.66;39.17
48622;BME280;34421;48.944;9.460;2022-09-09T15:00:32;98126.13;;;26.00;39.06